createdAt,value
2023-01-20T00:02:30.394Z,100373.13
2023-01-20T00:05:52.965Z,100391.13
2023-01-20T00:09:16.688Z,100374.88
2023-01-20T00:12:38.467Z,100372.25
2023-01-20T00:16:03.742Z,100392.81
2023-01-20T00:19:25.730Z,100391.13
2023-01-20T00:22:47.670Z,100393.72
2023-01-20T00:26:15.005Z,100385.16
2023-01-20T00:29:37.183Z,100387.75
2023-01-20T00:33:00.527Z,100393.72
2023-01-20T00:36:24.107Z,100406.56
2023-01-20T00:39:45.854Z,100397.13
2023-01-20T00:43:07.692Z,100395.44
2023-01-20T00:46:29.699Z,100393.75
2023-01-20T00:49:52.958Z,100403.16
2023-01-20T00:53:15.008Z,100400.56
2023-01-20T00:56:36.747Z,100406.56
2023-01-20T00:59:58.519Z,100408.28
2023-01-20T01:03:21.094Z,100385.28
2023-01-20T01:06:44.233Z,100416.03
2023-01-20T01:10:07.464Z,100410.06
2023-01-20T01:13:29.292Z,100416.88
2023-01-20T01:16:51.073Z,100415.16
2023-01-20T01:20:14.929Z,100411.72
2023-01-20T01:23:38.219Z,100404.88
2023-01-20T01:27:00.236Z,100386.00
2023-01-20T01:30:22.501Z,100386.91
2023-01-20T01:33:45.051Z,100379.22
2023-01-20T01:37:09.434Z,100379.22
2023-01-20T01:40:34.495Z,100370.56
2023-01-20T01:44:06.232Z,100381.72
2023-01-20T01:47:28.288Z,100367.97
2023-01-20T01:50:55.120Z,100346.59
2023-01-20T01:54:19.378Z,100355.13
2023-01-20T01:57:43.063Z,100338.09
2023-01-20T02:01:05.399Z,100333.81
2023-01-20T02:04:31.124Z,100353.47
2023-01-20T02:07:55.946Z,100351.75
2023-01-20T02:11:17.732Z,100356.06
2023-01-20T02:14:45.291Z,100356.06
2023-01-20T02:18:24.997Z,100352.63
2023-01-20T02:22:12.715Z,100348.41
2023-01-20T02:25:54.848Z,100357.78
2023-01-20T02:29:49.270Z,100352.63
2023-01-20T02:33:15.331Z,100351.78
2023-01-20T02:36:43.653Z,100357.81
2023-01-20T02:40:17.599Z,100368.94
2023-01-20T02:43:48.321Z,100375.78
2023-01-20T02:47:15.799Z,100378.34
2023-01-20T02:50:44.387Z,100392.09
2023-01-20T02:54:09.892Z,100390.41
2023-01-20T02:57:37.963Z,100392.94
2023-01-20T03:01:04.768Z,100400.66
2023-01-20T03:04:34.613Z,100393.84
2023-01-20T03:08:00.109Z,100399.81
2023-01-20T03:11:23.911Z,100397.25
2023-01-20T03:14:45.968Z,100395.53
2023-01-20T03:18:07.871Z,100397.25
2023-01-20T03:21:30.534Z,100404.09
2023-01-20T03:24:57.337Z,100410.97
2023-01-20T03:28:19.824Z,100410.13
2023-01-20T03:31:46.172Z,100416.13
2023-01-20T03:35:08.996Z,100410.19
2023-01-20T03:38:31.145Z,100418.69
2023-01-20T03:42:06.106Z,100421.28
2023-01-20T03:45:35.955Z,100418.66
2023-01-20T03:49:09.955Z,100425.53
2023-01-20T03:52:48.054Z,100434.13
2023-01-20T03:56:17.515Z,100434.13
2023-01-20T03:59:44.666Z,100434.13
2023-01-20T04:03:10.525Z,100440.09
2023-01-20T04:06:34.737Z,100438.41
2023-01-20T04:10:02.562Z,100436.72
2023-01-20T04:13:24.555Z,100439.25
2023-01-20T04:16:54.970Z,100449.56
2023-01-20T04:20:17.644Z,100427.38
2023-01-20T04:23:43.857Z,100452.97
2023-01-20T04:27:06.022Z,100452.13
2023-01-20T04:30:27.721Z,100449.56
2023-01-20T04:33:50.985Z,100453.84
2023-01-20T04:37:12.824Z,100446.16
2023-01-20T04:40:34.634Z,100442.72
2023-01-20T04:43:56.650Z,100445.28
2023-01-20T04:47:18.678Z,100447.88
2023-01-20T04:50:43.692Z,100429.13
2023-01-20T04:54:06.164Z,100447.03
2023-01-20T04:57:28.395Z,100447.91
2023-01-20T05:00:50.318Z,100443.63
2023-01-20T05:04:12.550Z,100450.47
2023-01-20T05:07:35.658Z,100437.66
2023-01-20T05:10:57.824Z,100441.94
2023-01-20T05:14:19.749Z,100438.56
2023-01-20T05:17:41.821Z,100448.81
2023-01-20T05:21:05.597Z,100448.81
2023-01-20T05:24:30.970Z,100455.69
2023-01-20T05:27:52.697Z,100455.69
2023-01-20T05:31:14.840Z,100453.97
2023-01-20T05:34:36.905Z,100460.81
2023-01-20T05:37:59.313Z,100460.81
2023-01-20T05:41:22.433Z,100460.81
2023-01-20T05:44:44.388Z,100465.97
2023-01-20T05:48:06.873Z,100465.09
2023-01-20T05:51:28.859Z,100462.53
2023-01-20T05:54:50.870Z,100465.09
2023-01-20T05:58:16.040Z,100469.38
2023-01-20T06:01:37.835Z,100465.13
2023-01-20T06:05:01.761Z,100471.94
2023-01-20T06:08:23.686Z,100469.38
2023-01-20T06:11:45.816Z,100476.25
2023-01-20T06:15:10.626Z,100481.41
2023-01-20T06:18:34.629Z,100484.81
2023-01-20T06:21:56.644Z,100492.56
2023-01-20T06:25:18.641Z,100496.84
2023-01-20T06:28:40.363Z,100483.16
2023-01-20T06:32:03.626Z,100502.00
2023-01-20T06:35:25.881Z,100505.41
2023-01-20T06:38:50.790Z,100504.56
2023-01-20T06:42:12.452Z,100502.84
2023-01-20T06:45:34.128Z,100501.19
2023-01-20T06:49:00.806Z,100508.00
2023-01-20T06:52:22.632Z,100509.75
2023-01-20T06:55:44.343Z,100526.91
2023-01-20T06:59:06.206Z,100538.06
2023-01-20T07:02:28.060Z,100536.34
2023-01-20T07:05:57.882Z,100545.78
2023-01-20T07:09:19.620Z,100547.50
2023-01-20T07:12:41.377Z,100550.94
2023-01-20T07:16:03.203Z,100563.81
2023-01-20T07:19:27.704Z,100562.97
2023-01-20T07:22:51.038Z,100572.38
2023-01-20T07:26:14.974Z,100575.78
2023-01-20T07:29:38.131Z,100570.69
2023-01-20T07:33:00.207Z,100588.66
2023-01-20T07:36:22.079Z,100598.94
2023-01-20T07:39:45.228Z,100608.34
2023-01-20T07:43:07.204Z,100610.94
2023-01-20T07:46:28.933Z,100627.19
2023-01-20T07:49:50.872Z,100632.34
2023-01-20T07:53:12.648Z,100629.78
2023-01-20T07:56:35.822Z,100633.19
2023-01-20T07:59:58.017Z,100639.19
2023-01-20T08:03:19.850Z,100643.47
2023-01-20T08:06:41.634Z,100644.31
2023-01-20T08:10:03.592Z,100637.50
2023-01-20T08:13:26.808Z,100631.50
2023-01-20T08:16:48.924Z,100661.47
2023-01-20T08:20:12.110Z,100643.50
2023-01-20T08:23:34.374Z,100676.00
2023-01-20T08:26:55.928Z,100691.47
2023-01-20T08:30:19.799Z,100690.59
2023-01-20T08:33:42.975Z,100697.44
2023-01-20T08:37:04.573Z,100702.56
2023-01-20T08:40:26.315Z,100698.28
2023-01-20T08:43:48.750Z,100715.41
2023-01-20T08:47:12.100Z,100715.41
2023-01-20T08:50:34.075Z,100704.25
2023-01-20T08:53:55.985Z,100705.09
2023-01-20T08:57:17.815Z,100712.78
2023-01-20T09:00:39.605Z,100723.03
2023-01-20T09:04:06.081Z,100712.75
2023-01-20T09:07:28.585Z,100713.59
2023-01-20T09:10:50.386Z,100717.00
2023-01-20T09:14:12.593Z,100727.28
2023-01-20T09:17:35.616Z,100735.00
2023-01-20T09:21:00.574Z,100741.00
2023-01-20T09:24:23.091Z,100739.25
2023-01-20T09:27:45.117Z,100741.84
2023-01-20T09:31:08.646Z,100737.50
2023-01-20T09:34:32.222Z,100740.06
2023-01-20T09:38:13.300Z,100734.09
2023-01-20T09:41:55.950Z,100734.06
2023-01-20T09:45:25.907Z,100733.19
2023-01-20T09:49:12.771Z,100743.50
2023-01-20T09:52:54.563Z,100749.53
2023-01-20T09:56:20.526Z,100755.53
2023-01-20T09:59:50.089Z,100759.84
2023-01-20T10:03:18.473Z,100764.13
2023-01-20T10:06:44.829Z,100769.25
2023-01-20T10:10:15.628Z,100759.88
2023-01-20T10:13:47.459Z,100782.19
2023-01-20T10:17:14.776Z,100786.44
2023-01-20T10:20:44.202Z,100789.03
2023-01-20T10:24:11.576Z,100783.03
2023-01-20T10:27:37.615Z,100782.16
2023-01-20T10:31:05.594Z,100794.16
2023-01-20T10:34:32.566Z,100803.59
2023-01-20T10:37:55.799Z,100793.28
2023-01-20T10:41:21.665Z,100788.13
2023-01-20T10:44:44.654Z,100795.00
2023-01-20T10:48:23.967Z,100794.09
2023-01-20T10:51:53.915Z,100788.97
2023-01-20T10:55:26.854Z,100788.94
2023-01-20T10:58:48.964Z,100799.25
2023-01-20T11:02:18.493Z,100806.94
2023-01-20T11:05:43.207Z,100798.38
2023-01-20T11:09:24.157Z,100814.63
2023-01-20T11:12:48.617Z,100821.47
2023-01-20T11:16:15.580Z,100818.03
2023-01-20T11:19:52.141Z,100817.19
2023-01-20T11:23:24.397Z,100822.28
2023-01-20T11:26:46.804Z,100818.84
2023-01-20T11:30:24.555Z,100828.25
2023-01-20T11:33:57.970Z,100835.13
2023-01-20T11:37:22.659Z,100804.31
2023-01-20T11:40:53.676Z,100834.28
2023-01-20T11:44:21.680Z,100833.41
2023-01-20T11:47:43.488Z,100838.56
2023-01-20T11:51:05.855Z,100845.47
2023-01-20T11:54:29.104Z,100851.50
2023-01-20T11:57:54.865Z,100851.53
2023-01-20T12:01:24.517Z,100865.25
2023-01-20T12:05:00.641Z,100871.28
2023-01-20T12:08:28.042Z,100871.31
2023-01-20T12:11:56.553Z,100868.75
2023-01-20T12:15:22.111Z,100881.66
2023-01-20T12:19:01.554Z,100894.53
2023-01-20T12:22:30.052Z,100893.69
2023-01-20T12:25:57.536Z,100908.28
2023-01-20T12:29:26.399Z,100908.28
2023-01-20T12:32:50.957Z,100888.59
2023-01-20T12:36:43.325Z,100914.31
2023-01-20T12:40:18.286Z,100929.75
2023-01-20T12:43:53.626Z,100933.19
2023-01-20T12:47:27.740Z,100930.63
2023-01-20T12:51:12.703Z,100934.09
2023-01-20T12:54:58.593Z,100946.97
2023-01-20T12:58:35.944Z,100953.84
2023-01-20T13:02:19.037Z,100957.31
2023-01-20T13:06:14.458Z,100956.47
2023-01-20T13:09:53.815Z,100967.59
2023-01-20T13:13:25.659Z,100986.50
2023-01-20T13:16:53.991Z,100985.63
2023-01-20T13:20:22.853Z,100995.06
2023-01-20T13:23:47.509Z,100996.78
2023-01-20T13:27:10.119Z,101006.22
2023-01-20T13:30:48.236Z,101021.66
2023-01-20T13:34:33.880Z,101023.34
2023-01-20T13:37:57.783Z,101033.66
2023-01-20T13:41:51.975Z,101044.78
2023-01-20T13:45:28.001Z,101052.50
2023-01-20T13:49:15.760Z,101057.63
2023-01-20T13:53:05.997Z,101062.75
2023-01-20T13:56:30.478Z,101069.63
2023-01-20T13:59:54.022Z,101055.00
2023-01-20T14:03:23.007Z,101069.53
2023-01-20T14:06:46.960Z,101066.06
2023-01-20T14:10:14.416Z,101047.97
2023-01-20T14:13:37.176Z,101090.00
2023-01-20T14:17:03.424Z,101097.69
2023-01-20T14:20:27.683Z,101110.50
2023-01-20T14:23:51.030Z,101115.56
2023-01-20T14:27:19.713Z,101114.63
2023-01-20T14:30:41.760Z,101112.03
2023-01-20T14:34:23.266Z,101105.81
2023-01-20T14:37:49.792Z,101133.25
2023-01-20T14:41:25.817Z,101139.19
2023-01-20T14:44:49.493Z,101143.44
2023-01-20T14:48:24.732Z,101143.31
2023-01-20T14:51:56.625Z,101160.41
2023-01-20T14:55:29.335Z,101145.75
2023-01-20T14:58:54.930Z,101168.09
2023-01-20T15:02:28.232Z,101179.09
2023-01-20T15:05:58.475Z,101191.06
2023-01-20T15:09:33.375Z,101205.53
2023-01-20T15:12:56.025Z,101206.34
2023-01-20T15:16:20.429Z,101216.56
2023-01-20T15:19:47.369Z,101213.91
2023-01-20T15:23:16.365Z,101223.25
2023-01-20T15:26:40.026Z,101238.63
2023-01-20T15:30:21.381Z,101238.53
2023-01-20T15:33:43.832Z,101256.53
2023-01-20T15:37:12.748Z,101255.59
2023-01-20T15:40:35.939Z,101268.50
2023-01-20T15:43:59.188Z,101271.84
2023-01-20T15:47:26.126Z,101278.66
2023-01-20T15:50:48.925Z,101285.44
2023-01-20T15:54:10.865Z,101301.59
2023-01-20T15:57:33.015Z,101306.69
2023-01-20T16:00:57.433Z,101319.47
2023-01-20T16:04:20.660Z,101318.59
2023-01-20T16:07:44.434Z,101326.25
2023-01-20T16:11:06.564Z,101329.59
2023-01-20T16:14:30.877Z,101336.38
2023-01-20T16:17:54.171Z,101336.31
2023-01-20T16:21:18.311Z,101349.97
2023-01-20T16:24:40.318Z,101350.78
2023-01-20T16:28:02.720Z,101362.69
2023-01-20T16:31:25.906Z,101375.44
2023-01-20T16:34:49.641Z,101397.56
2023-01-20T16:38:14.671Z,101399.28
2023-01-20T16:41:38.484Z,101408.63
2023-01-20T16:45:00.441Z,101406.84
2023-01-20T16:48:23.403Z,101412.84
2023-01-20T16:51:46.681Z,101414.53
2023-01-20T16:55:11.607Z,101414.47
2023-01-20T16:58:35.152Z,101421.38
2023-01-20T17:01:56.923Z,101428.16
2023-01-20T17:05:22.681Z,101431.56
2023-01-20T17:08:46.201Z,101433.22
2023-01-20T17:12:08.572Z,101435.66
2023-01-20T17:15:30.346Z,101438.13
2023-01-20T17:18:52.916Z,101453.59
2023-01-20T17:22:15.034Z,101446.53
2023-01-20T17:25:38.183Z,101467.16
2023-01-20T17:29:02.418Z,101467.09
2023-01-20T17:32:24.378Z,101470.50
2023-01-20T17:35:47.210Z,101473.94
2023-01-20T17:39:09.398Z,101477.28
2023-01-20T17:42:32.755Z,101487.75
2023-01-20T17:45:56.160Z,101482.72
2023-01-20T17:49:18.118Z,101482.75
2023-01-20T17:52:40.131Z,101493.13
2023-01-20T17:56:12.413Z,101488.00
2023-01-20T17:59:36.284Z,101500.03
2023-01-20T18:02:58.581Z,101492.34
2023-01-20T18:06:22.769Z,101497.47
2023-01-20T18:09:44.927Z,101502.66
2023-01-20T18:13:07.135Z,101500.06
2023-01-20T18:16:32.295Z,101496.66
2023-01-20T18:19:54.443Z,101494.03
2023-01-20T18:23:16.430Z,101478.53
2023-01-20T18:26:40.293Z,101500.94
2023-01-20T18:30:02.170Z,101519.78
2023-01-20T18:33:25.779Z,101527.47
2023-01-20T18:36:49.435Z,101532.63
2023-01-20T18:40:12.951Z,101537.72
2023-01-20T18:43:34.893Z,101539.44
2023-01-20T18:46:57.108Z,101537.69
2023-01-20T18:50:20.590Z,101545.31
2023-01-20T18:53:43.652Z,101553.84
2023-01-20T18:57:08.674Z,101563.25
2023-01-20T19:00:31.481Z,101560.66
2023-01-20T19:03:53.955Z,101569.09
2023-01-20T19:07:17.596Z,101556.03
2023-01-20T19:10:39.855Z,101567.06
2023-01-20T19:14:01.751Z,101576.59
2023-01-20T19:17:23.406Z,101576.34
2023-01-20T19:20:45.779Z,101598.59
2023-01-20T19:24:12.051Z,101608.00
2023-01-20T19:27:34.061Z,101610.47
2023-01-20T19:30:56.507Z,101581.00
2023-01-20T19:34:18.406Z,101622.31
2023-01-20T19:37:40.441Z,101620.53
2023-01-20T19:41:08.208Z,101612.47
2023-01-20T19:44:30.174Z,101644.28
2023-01-20T19:47:51.935Z,101658.66
2023-01-20T19:51:16.200Z,101661.94
2023-01-20T19:54:38.765Z,101662.63
2023-01-20T19:58:02.144Z,101655.56
2023-01-20T20:01:26.017Z,101660.53
2023-01-20T20:04:47.994Z,101671.50
2023-01-20T20:08:10.069Z,101681.66
2023-01-20T20:11:32.733Z,101679.88
2023-01-20T20:14:56.898Z,101685.00
2023-01-20T20:18:18.840Z,101687.53
2023-01-20T20:21:40.765Z,101708.78
2023-01-20T20:25:02.622Z,101719.72
2023-01-20T20:28:24.921Z,101729.78
2023-01-20T20:31:48.770Z,101739.69
2023-01-20T20:35:10.764Z,101748.84
2023-01-20T20:38:34.438Z,101752.91
2023-01-20T20:41:56.745Z,101762.16
2023-01-20T20:45:19.837Z,101771.50
2023-01-20T20:48:44.801Z,101772.31
2023-01-20T20:52:07.265Z,101773.78
2023-01-20T20:55:29.446Z,101784.84
2023-01-20T20:59:01.386Z,101790.72
2023-01-20T21:02:24.383Z,101792.25
2023-01-20T21:05:49.670Z,101788.28
2023-01-20T21:09:11.758Z,101817.44
2023-01-20T21:12:33.727Z,101819.94
2023-01-20T21:15:57.303Z,101818.06
2023-01-20T21:19:19.886Z,101823.03
2023-01-20T21:22:43.304Z,101822.72
2023-01-20T21:26:07.747Z,101830.88
2023-01-20T21:29:29.929Z,101848.84
2023-01-20T21:32:54.162Z,101849.56
2023-01-20T21:36:16.243Z,101854.50
2023-01-20T21:39:39.351Z,101866.22
2023-01-20T21:43:30.102Z,101879.66
2023-01-20T21:46:51.897Z,101891.41
2023-01-20T21:50:30.733Z,101888.66
2023-01-20T21:53:53.077Z,101892.00
2023-01-20T21:57:18.047Z,101902.84
2023-01-20T22:00:40.167Z,101913.91
2023-01-20T22:04:02.616Z,101909.44
2023-01-20T22:07:24.937Z,101911.13
2023-01-20T22:10:46.677Z,101910.16
2023-01-20T22:14:11.077Z,101921.94
2023-01-20T22:17:32.800Z,101919.28
2023-01-20T22:20:54.819Z,101915.56
2023-01-20T22:24:16.841Z,101929.25
2023-01-20T22:27:38.684Z,101938.47
2023-01-20T22:31:08.463Z,101931.38
2023-01-20T22:34:30.490Z,101938.84
2023-01-20T22:37:52.274Z,101950.75
2023-01-20T22:41:14.486Z,101960.84
2023-01-20T22:44:36.480Z,101964.97
2023-01-20T22:47:59.929Z,101968.25
2023-01-20T22:51:24.288Z,101981.75
2023-01-20T22:54:46.217Z,101988.41
2023-01-20T22:58:08.068Z,101994.25
2023-01-20T23:01:33.201Z,101988.09
2023-01-20T23:04:56.276Z,101997.44
2023-01-20T23:08:18.242Z,102006.59
2023-01-20T23:11:40.775Z,102017.63
2023-01-20T23:15:03.009Z,102017.50
2023-01-20T23:18:26.189Z,102027.47
2023-01-20T23:21:49.630Z,102029.03
2023-01-20T23:25:12.400Z,102032.22
2023-01-20T23:28:35.138Z,102041.44
2023-01-20T23:31:57.173Z,102034.22
2023-01-20T23:35:18.833Z,102057.34
2023-01-20T23:38:42.730Z,102045.16
2023-01-20T23:42:04.736Z,102057.09
2023-01-20T23:45:28.307Z,102042.31
2023-01-20T23:48:50.269Z,102049.28
2023-01-20T23:52:12.194Z,102056.78
2023-01-20T23:55:38.031Z,102063.34
2023-01-20T23:59:00.142Z,102065.78
